Time;durP1;ratioP1;P1;durP2;ratioP2;P2;SDS_P1;SDS_P2;PMS_P1;PMS_P2;Temp;Humidity;BMP_temperature;BMP_pressure;BME280_temperature;BME280_humidity;BME280_pressure;Samples;Min_cycle;Max_cycle;Signal;HPM_P1;HPM_P2
2022/09/06 00:03:35;;;;;;;5.53;5.03;;;;;;;;;;10363487;28;20038;-79
2022/09/06 00:08:35;;;;;;;5.07;4.57;;;;;;;;;;10358427;28;20042;-78
2022/09/06 00:13:36;;;;;;;6.63;5.30;;;;;;;;;;10370739;28;20331;-80
2022/09/06 00:18:36;;;;;;;6.03;5.18;;;;;;;;;;10367787;28;20440;-77
2022/09/06 00:23:37;;;;;;;6.75;5.43;;;;;;;;;;10362991;28;20148;-78
2022/09/06 00:28:38;;;;;;;5.80;5.00;;;;;;;;;;10364859;28;20336;-79
2022/09/06 00:33:39;;;;;;;6.88;5.13;;;;;;;;;;10358265;28;20030;-79
2022/09/06 00:38:40;;;;;;;5.97;5.35;;;;;;;;;;10368215;28;20050;-78
2022/09/06 00:43:40;;;;;;;5.75;5.18;;;;;;;;;;10352816;28;20119;-80
2022/09/06 00:48:42;;;;;;;5.38;4.88;;;;;;;;;;10368074;28;20057;-80
2022/09/06 00:53:42;;;;;;;6.57;5.22;;;;;;;;;;10386442;28;20046;-79
2022/09/06 00:58:43;;;;;;;8.07;5.43;;;;;;;;;;10390436;28;20078;-77
2022/09/06 01:03:44;;;;;;;5.78;5.20;;;;;;;;;;10374852;28;20168;-79
2022/09/06 01:08:59;;;;;;;5.82;5.32;;;;;;;;;;10365811;28;20494;-79
2022/09/06 01:14:13;;;;;;;6.15;5.55;;;;;;;;;;10358955;28;20440;-79
2022/09/06 01:19:32;;;;;;;6.10;5.50;;;;;;;;;;10355226;28;20042;-78
2022/09/06 01:24:49;;;;;;;6.30;5.80;;;;;;;;;;10354844;28;20065;-79
2022/09/06 01:29:56;;;;;;;6.07;5.47;;;;;;;;;;10363869;28;20034;-79
2022/09/06 01:35:12;;;;;;;6.43;5.53;;;;;;;;;;10367215;28;20417;-79
2022/09/06 01:40:12;;;;;;;5.63;5.15;;;;;;;;;;10346161;28;20697;-78
2022/09/06 01:45:18;;;;;;;6.45;5.82;;;;;;;;;;10358935;28;20100;-79
2022/09/06 01:50:25;;;;;;;6.60;5.93;;;;;;;;;;10344719;28;20410;-78
2022/09/06 01:55:31;;;;;;;6.50;5.90;;;;;;;;;;10346664;28;20531;-78
2022/09/06 02:00:36;;;;;;;5.97;5.38;;;;;;;;;;10359663;28;20053;-79
2022/09/06 02:05:40;;;;;;;7.82;5.90;;;;;;;;;;10364417;28;20133;-78
2022/09/06 02:10:53;;;;;;;6.55;5.95;;;;;;;;;;10364430;28;20367;-78
2022/09/06 02:15:54;;;;;;;;;;;;;;;;;;10341558;28;20056;-77
2022/09/06 02:20:56;;;;;;;6.32;5.72;;;;;;;;;;10352410;28;20016;-78
2022/09/06 02:25:59;;;;;;;5.50;5.00;;;;;;;;;;10359555;28;20049;-77
2022/09/06 02:31:01;;;;;;;6.78;6.13;;;;;;;;;;10361575;28;20134;-77
2022/09/06 02:36:04;;;;;;;6.63;5.95;;;;;;;;;;10358976;28;20038;-80
2022/09/06 02:41:06;;;;;;;5.90;5.40;;;;;;;;;;10349343;28;20034;-78
2022/09/06 02:46:06;;;;;;;6.18;5.47;;;;;;;;;;10356770;28;20450;-78
2022/09/06 02:51:08;;;;;;;7.65;6.10;;;;;;;;;;10347358;28;20092;-78
2022/09/06 02:56:09;;;;;;;8.35;7.47;;;;;;;;;;10343689;28;20101;-79
2022/09/06 03:01:09;;;;;;;7.30;6.60;;;;;;;;;;10343733;28;20444;-77
2022/09/06 03:06:10;;;;;;;7.38;6.72;;;;;;;;;;10353420;28;20046;-79
2022/09/06 03:11:10;;;;;;;7.05;6.35;;;;;;;;;;10347521;28;20064;-79
2022/09/06 03:16:11;;;;;;;7.60;6.68;;;;;;;;;;10353225;28;20065;-81
2022/09/06 03:21:11;;;;;;;7.78;7.05;;;;;;;;;;10359312;28;20042;-78
2022/09/06 03:26:11;;;;;;;8.37;7.57;;;;;;;;;;10348960;28;20033;-78
2022/09/06 03:31:12;;;;;;;8.20;7.23;;;;;;;;;;10347135;28;20320;-79
2022/09/06 03:36:12;;;;;;;9.20;7.85;;;;;;;;;;10350671;28;20041;-78
2022/09/06 03:41:13;;;;;;;7.65;6.93;;;;;;;;;;10339954;28;20324;-77
2022/09/06 03:46:13;;;;;;;7.97;7.17;;;;;;;;;;10346825;28;20049;-79
2022/09/06 03:51:14;;;;;;;8.50;7.70;;;;;;;;;;10356186;28;20383;-79
2022/09/06 03:56:16;;;;;;;8.90;8.00;;;;;;;;;;10351346;28;20125;-79
2022/09/06 04:01:16;;;;;;;8.85;8.05;;;;;;;;;;10346928;28;20039;-79
2022/09/06 04:06:16;;;;;;;8.83;7.93;;;;;;;;;;10353316;28;20030;-79
2022/09/06 04:11:17;;;;;;;8.73;7.93;;;;;;;;;;10343313;28;20037;-79
2022/09/06 04:16:19;;;;;;;8.47;7.67;;;;;;;;;;10344853;28;20034;-79
2022/09/06 04:21:19;;;;;;;9.38;8.50;;;;;;;;;;10367929;28;20338;-78
2022/09/06 04:26:20;;;;;;;10.43;9.43;;;;;;;;;;10353567;28;20046;-78
2022/09/06 04:31:20;;;;;;;10.00;8.98;;;;;;;;;;10346509;28;20316;-76
2022/09/06 04:36:21;;;;;;;10.60;9.60;;;;;;;;;;10365346;28;20129;-79
2022/09/06 04:41:21;;;;;;;10.45;9.40;;;;;;;;;;10363318;28;20468;-78
2022/09/06 04:46:26;;;;;;;11.27;10.10;;;;;;;;;;10366318;28;20144;-78
2022/09/06 04:51:26;;;;;;;12.10;10.00;;;;;;;;;;10366538;28;20323;-78
2022/09/06 04:56:27;;;;;;;12.05;10.93;;;;;;;;;;10360577;28;20125;-78
2022/09/06 05:01:27;;;;;;;12.70;11.02;;;;;;;;;;10361773;28;20118;-79
2022/09/06 05:06:27;;;;;;;11.52;10.25;;;;;;;;;;10375373;28;20028;-79
2022/09/06 05:11:29;;;;;;;12.70;11.27;;;;;;;;;;10361341;28;20068;-78
2022/09/06 05:16:30;;;;;;;12.87;10.93;;;;;;;;;;10374987;28;20297;-79
2022/09/06 05:21:30;;;;;;;12.02;10.82;;;;;;;;;;10391738;28;20026;-80
2022/09/06 05:26:30;;;;;;;11.37;10.27;;;;;;;;;;10385749;28;20057;-79
2022/09/06 05:31:32;;;;;;;11.70;10.57;;;;;;;;;;10364766;28;20292;-79
2022/09/06 05:36:33;;;;;;;11.20;9.90;;;;;;;;;;10378891;28;20045;-79
2022/09/06 05:41:33;;;;;;;10.10;9.10;;;;;;;;;;10362589;28;20042;-72
2022/09/06 05:46:40;;;;;;;13.57;12.13;;;;;;;;;;10347310;28;20042;-72
2022/09/06 05:51:40;;;;;;;13.55;12.18;;;;;;;;;;10355639;28;20125;-72
2022/09/06 05:56:40;;;;;;;14.27;12.32;;;;;;;;;;10344593;28;20098;-71
2022/09/06 06:01:48;;;;;;;18.10;13.97;;;;;;;;;;10359085;28;20053;-73
2022/09/06 06:06:48;;;;;;;14.90;13.30;;;;;;;;;;10350666;28;20042;-72
2022/09/06 06:11:49;;;;;;;14.63;13.13;;;;;;;;;;10350699;28;20037;-73
2022/09/06 06:16:49;;;;;;;16.65;14.82;;;;;;;;;;10351746;28;20063;-73
2022/09/06 06:21:50;;;;;;;15.57;14.02;;;;;;;;;;10355360;28;20030;-73
2022/09/06 06:26:50;;;;;;;14.60;13.10;;;;;;;;;;10349107;28;20040;-71
2022/09/06 06:31:51;;;;;;;16.05;13.57;;;;;;;;;;10342803;28;20034;-76
2022/09/06 06:36:51;;;;;;;14.20;12.70;;;;;;;;;;10354011;28;20042;-72
2022/09/06 06:41:52;;;;;;;14.38;12.55;;;;;;;;;;10343341;28;20751;-72
2022/09/06 06:47:05;;;;;;;13.23;12.02;;;;;;;;;;10340376;28;20045;-73
2022/09/06 06:52:06;;;;;;;14.63;13.23;;;;;;;;;;10356806;28;20123;-74
2022/09/06 06:57:08;;;;;;;13.45;12.15;;;;;;;;;;10344565;28;20030;-72
2022/09/06 07:02:08;;;;;;;14.10;12.70;;;;;;;;;;10338901;28;20502;-73
2022/09/06 07:07:09;;;;;;;13.75;12.40;;;;;;;;;;10346154;28;20030;-75
2022/09/06 07:12:09;;;;;;;13.90;12.50;;;;;;;;;;10358425;28;20049;-72
2022/09/06 07:17:09;;;;;;;13.23;11.83;;;;;;;;;;10334465;28;20301;-73
2022/09/06 07:22:10;;;;;;;12.83;11.50;;;;;;;;;;10346076;28;20276;-72
2022/09/06 07:27:10;;;;;;;14.00;12.67;;;;;;;;;;10348053;28;20384;-72
2022/09/06 07:32:10;;;;;;;14.57;13.03;;;;;;;;;;10350361;28;20324;-73
2022/09/06 07:37:11;;;;;;;14.10;12.70;;;;;;;;;;10354652;28;20061;-72
2022/09/06 07:42:11;;;;;;;13.97;12.67;;;;;;;;;;10353797;28;20297;-71
2022/09/06 07:47:12;;;;;;;13.93;12.53;;;;;;;;;;10349084;28;20265;-73
2022/09/06 07:52:12;;;;;;;13.68;12.38;;;;;;;;;;10342519;28;20301;-72
2022/09/06 07:57:12;;;;;;;13.02;11.73;;;;;;;;;;10346356;28;20093;-72
2022/09/06 08:02:13;;;;;;;14.03;12.57;;;;;;;;;;10342842;28;20114;-75
2022/09/06 08:07:15;;;;;;;12.60;11.40;;;;;;;;;;10352819;28;20395;-74
2022/09/06 08:12:16;;;;;;;12.38;11.15;;;;;;;;;;10354288;28;20879;-71
2022/09/06 08:17:16;;;;;;;11.77;10.70;;;;;;;;;;10357002;28;20153;-73
2022/09/06 08:22:17;;;;;;;12.10;10.90;;;;;;;;;;10359005;28;20037;-72
2022/09/06 08:27:17;;;;;;;11.80;10.47;;;;;;;;;;10347616;28;20060;-72
2022/09/06 08:32:18;;;;;;;12.03;10.80;;;;;;;;;;10355471;28;20293;-72
2022/09/06 08:37:18;;;;;;;12.35;11.15;;;;;;;;;;10341497;28;20120;-74
2022/09/06 08:42:19;;;;;;;13.00;11.70;;;;;;;;;;10354625;28;20113;-71
2022/09/06 08:47:20;;;;;;;11.37;9.80;;;;;;;;;;10349435;28;20105;-72
2022/09/06 08:52:30;;;;;;;11.07;10.07;;;;;;;;;;10353274;28;20141;-70
2022/09/06 08:57:30;;;;;;;10.15;9.07;;;;;;;;;;10341652;28;20050;-71
2022/09/06 09:02:39;;;;;;;9.90;8.90;;;;;;;;;;10358306;28;20030;-75
2022/09/06 09:08:09;;;;;;;10.15;9.13;;;;;;;;;;10350222;28;20088;-74
2022/09/06 09:13:16;;;;;;;11.23;10.05;;;;;;;;;;10340324;28;20113;-74
2022/09/06 09:18:19;;;;;;;10.45;9.48;;;;;;;;;;10356157;28;20053;-70
2022/09/06 09:23:20;;;;;;;10.85;9.80;;;;;;;;;;10342253;28;20764;-72
2022/09/06 09:28:22;;;;;;;11.07;9.98;;;;;;;;;;10357749;28;20097;-73
2022/09/06 09:33:27;;;;;;;10.85;9.75;;;;;;;;;;10358984;28;20041;-71
2022/09/06 09:38:33;;;;;;;10.20;9.13;;;;;;;;;;10352245;28;20110;-71
2022/09/06 09:43:39;;;;;;;9.38;8.48;;;;;;;;;;10347876;28;20441;-74
2022/09/06 09:48:41;;;;;;;9.60;8.48;;;;;;;;;;10355576;28;20050;-72
2022/09/06 09:53:49;;;;;;;11.00;9.70;;;;;;;;;;10352388;28;20030;-71
2022/09/06 09:58:50;;;;;;;9.85;8.85;;;;;;;;;;10348917;28;20069;-72
2022/09/06 10:03:58;;;;;;;8.60;7.65;;;;;;;;;;10352467;28;20133;-76
2022/09/06 10:09:11;;;;;;;7.57;6.88;;;;;;;;;;10356037;28;20121;-73
2022/09/06 10:14:16;;;;;;;7.95;6.85;;;;;;;;;;10347128;28;20053;-72
2022/09/06 10:19:36;;;;;;;9.10;8.07;;;;;;;;;;10346936;28;20397;-72
2022/09/06 10:24:42;;;;;;;8.40;7.28;;;;;;;;;;10347979;28;20216;-74
2022/09/06 10:30:15;;;;;;;7.05;6.38;;;;;;;;;;10348827;28;20065;-72
2022/09/06 10:35:16;;;;;;;9.77;8.50;;;;;;;;;;10310253;28;20065;-73
2022/09/06 10:40:22;;;;;;;6.43;5.80;;;;;;;;;;10346267;28;20449;-75
2022/09/06 10:45:27;;;;;;;6.13;5.53;;;;;;;;;;10344373;28;20042;-72
2022/09/06 10:50:33;;;;;;;5.03;4.53;;;;;;;;;;10349169;28;20033;-74
2022/09/06 10:55:34;;;;;;;6.68;5.03;;;;;;;;;;10341353;28;20343;-71
2022/09/06 11:00:42;;;;;;;5.32;4.40;;;;;;;;;;10329067;28;20550;-73
2022/09/06 11:05:48;;;;;;;13.73;12.32;;;;;;;;;;10351702;28;20042;-79
2022/09/06 11:11:23;;;;;;;5.28;4.40;;;;;;;;;;10334988;28;20413;-79
2022/09/06 11:16:26;;;;;;;6.45;4.63;;;;;;;;;;10360051;28;20310;-77
2022/09/06 11:21:53;;;;;;;4.90;3.97;;;;;;;;;;10360577;28;20042;-78
2022/09/06 11:27:12;;;;;;;4.72;3.30;;;;;;;;;;10346486;28;20051;-79
2022/09/06 11:32:28;;;;;;;5.30;4.80;;;;;;;;;;10360317;28;20056;-79
2022/09/06 11:37:34;;;;;;;7.25;5.22;;;;;;;;;;10355976;28;20378;-78
2022/09/06 11:42:58;;;;;;;5.07;4.60;;;;;;;;;;10367862;28;20034;-79
2022/09/06 11:48:18;;;;;;;3.20;2.90;;;;;;;;;;10271317;28;20486;-77
2022/09/06 11:53:20;;;;;;;3.58;2.92;;;;;;;;;;10287556;28;20152;-79
2022/09/06 11:58:27;;;;;;;4.03;3.72;;;;;;;;;;10291775;28;20094;-81
2022/09/06 12:03:54;;;;;;;4.18;3.30;;;;;;;;;;10249451;28;20077;-78
2022/09/06 12:08:55;;;;;;;4.63;3.45;;;;;;;;;;10208354;28;1114141;-79
2022/09/06 12:14:04;;;;;;;4.37;3.30;;;;;;;;;;10262208;28;20054;-78
2022/09/06 12:19:07;;;;;;;4.53;3.35;;;;;;;;;;10331796;28;20057;-80
2022/09/06 12:24:08;;;;;;;3.80;3.00;;;;;;;;;;10344562;28;20034;-78
2022/09/06 12:29:10;;;;;;;3.50;3.08;;;;;;;;;;10352727;28;20047;-78
2022/09/06 12:34:13;;;;;;;3.20;2.90;;;;;;;;;;10352208;28;20432;-78
2022/09/06 12:39:14;;;;;;;5.13;3.50;;;;;;;;;;10356992;28;20125;-78
2022/09/06 12:44:15;;;;;;;3.73;2.97;;;;;;;;;;10367491;28;20504;-78
2022/09/06 12:49:18;;;;;;;6.57;5.53;;;;;;;;;;10372099;28;20034;-77
2022/09/06 12:54:19;;;;;;;4.45;3.20;;;;;;;;;;10366532;28;20042;-73
2022/09/06 12:59:22;;;;;;;3.80;3.23;;;;;;;;;;10361628;28;20035;-73
2022/09/06 13:04:50;;;;;;;3.97;2.80;;;;;;;;;;10346705;28;20029;-72
2022/09/06 13:09:52;;;;;;;2.97;2.70;;;;;;;;;;10357549;28;20057;-73
2022/09/06 13:14:53;;;;;;;3.45;3.08;;;;;;;;;;10367259;28;20085;-73
2022/09/06 13:19:54;;;;;;;3.58;2.95;;;;;;;;;;10361769;28;20030;-72
2022/09/06 13:24:55;;;;;;;5.53;3.10;;;;;;;;;;10354301;28;20041;-74
2022/09/06 13:29:56;;;;;;;4.53;3.17;;;;;;;;;;10350482;28;20061;-73
2022/09/06 13:34:57;;;;;;;3.78;3.42;;;;;;;;;;10346863;28;20064;-72
2022/09/06 13:39:58;;;;;;;3.45;2.97;;;;;;;;;;10343034;28;20050;-73
2022/09/06 13:45:19;;;;;;;3.10;2.90;;;;;;;;;;10342118;28;20088;-72
2022/09/06 13:50:19;;;;;;;4.03;3.15;;;;;;;;;;10334715;28;20069;-73
2022/09/06 13:55:22;;;;;;;3.20;2.90;;;;;;;;;;10352367;28;20132;-73
2022/09/06 14:00:22;;;;;;;4.15;3.67;;;;;;;;;;10340534;28;20042;-73
2022/09/06 14:05:23;;;;;;;4.27;2.97;;;;;;;;;;10367128;28;20041;-72
2022/09/06 14:10:23;;;;;;;4.00;3.27;;;;;;;;;;10358266;28;20114;-73
2022/09/06 14:15:24;;;;;;;3.73;2.80;;;;;;;;;;10342016;28;20058;-76
2022/09/06 14:20:24;;;;;;;3.78;3.10;;;;;;;;;;10339223;28;20061;-74
2022/09/06 14:25:25;;;;;;;3.43;3.17;;;;;;;;;;10344038;28;20129;-74
2022/09/06 14:30:25;;;;;;;6.00;3.60;;;;;;;;;;10340806;28;20038;-75
2022/09/06 14:35:27;;;;;;;2.83;2.43;;;;;;;;;;10339108;28;20038;-74
2022/09/06 14:40:27;;;;;;;2.95;2.40;;;;;;;;;;10343799;28;20405;-74
2022/09/06 14:45:28;;;;;;;4.20;2.80;;;;;;;;;;10340605;28;20034;-74
2022/09/06 14:50:30;;;;;;;2.83;2.60;;;;;;;;;;10347655;28;20092;-77
2022/09/06 14:55:30;;;;;;;3.97;2.50;;;;;;;;;;10342933;28;20046;-74
2022/09/06 15:00:31;;;;;;;3.10;2.40;;;;;;;;;;10347238;28;20429;-74
2022/09/06 15:05:32;;;;;;;3.00;2.70;;;;;;;;;;10342617;28;20045;-74
2022/09/06 15:10:32;;;;;;;2.97;1.97;;;;;;;;;;10337928;28;20064;-73
2022/09/06 15:15:33;;;;;;;2.70;2.07;;;;;;;;;;10341365;28;20037;-78
2022/09/06 15:20:33;;;;;;;2.37;2.20;;;;;;;;;;10343676;28;20489;-75
2022/09/06 15:25:34;;;;;;;3.43;2.50;;;;;;;;;;10348853;28;20112;-74
2022/09/06 15:30:37;;;;;;;4.13;2.73;;;;;;;;;;10343615;28;20331;-74
2022/09/06 15:35:38;;;;;;;4.70;3.05;;;;;;;;;;10348858;28;20057;-74
2022/09/06 15:40:38;;;;;;;4.22;3.05;;;;;;;;;;10354370;28;20092;-73
2022/09/06 15:45:47;;;;;;;3.73;2.63;;;;;;;;;;10341481;28;20120;-76
2022/09/06 15:50:47;;;;;;;4.07;3.40;;;;;;;;;;10341936;28;20038;-73
2022/09/06 15:55:56;;;;;;;5.07;4.15;;;;;;;;;;10334599;28;20046;-75
2022/09/06 16:01:04;;;;;;;3.67;2.90;;;;;;;;;;10342632;28;20035;-73
2022/09/06 16:06:11;;;;;;;3.10;2.70;;;;;;;;;;10337751;28;20145;-75
2022/09/06 16:11:13;;;;;;;3.35;2.50;;;;;;;;;;10347225;28;20515;-75
2022/09/06 16:16:14;;;;;;;3.15;2.60;;;;;;;;;;10347788;28;20394;-75
2022/09/06 16:21:20;;;;;;;3.55;2.88;;;;;;;;;;10353076;28;20463;-75
2022/09/06 16:26:21;;;;;;;3.13;2.47;;;;;;;;;;10349041;28;20435;-75
2022/09/06 16:31:22;;;;;;;2.90;2.70;;;;;;;;;;10346829;28;20104;-75
2022/09/06 16:36:22;;;;;;;3.27;2.70;;;;;;;;;;10354188;28;20042;-75
2022/09/06 16:41:27;;;;;;;4.67;3.20;;;;;;;;;;10346814;28;20486;-75
2022/09/06 16:46:28;;;;;;;5.95;4.28;;;;;;;;;;10346912;28;20029;-73
2022/09/06 16:51:30;;;;;;;4.30;2.90;;;;;;;;;;10342758;28;20042;-73
2022/09/06 16:56:33;;;;;;;12.90;11.60;;;;;;;;;;10359046;28;20069;-74
2022/09/06 17:01:34;;;;;;;5.00;4.43;;;;;;;;;;10351318;28;20497;-73
2022/09/06 17:06:41;;;;;;;3.78;3.28;;;;;;;;;;10355361;28;20466;-74
2022/09/06 17:11:41;;;;;;;4.45;3.40;;;;;;;;;;10364796;28;20911;-74
2022/09/06 17:22:01;;;;;;;8.20;5.20;;;;;;;;;;10346901;28;20108;-75
2022/09/06 17:27:02;;;;;;;7.93;5.10;;;;;;;;;;10352746;28;20068;-74
2022/09/06 17:32:08;;;;;;;5.82;4.68;;;;;;;;;;10348290;28;20042;-73
2022/09/06 17:37:09;;;;;;;6.25;4.90;;;;;;;;;;10338490;28;20037;-74
2022/09/06 17:42:10;;;;;;;11.18;9.60;;;;;;;;;;10345674;28;20026;-75
2022/09/06 17:47:10;;;;;;;15.13;13.63;;;;;;;;;;10346699;28;20400;-75
2022/09/06 17:52:11;;;;;;;8.73;7.82;;;;;;;;;;10342251;28;20064;-75
2022/09/06 17:57:11;;;;;;;6.95;6.25;;;;;;;;;;10354165;28;20443;-75
2022/09/06 18:02:12;;;;;;;13.57;11.73;;;;;;;;;;10335711;28;20131;-76
2022/09/06 18:07:12;;;;;;;9.07;8.00;;;;;;;;;;10338078;28;20344;-74
2022/09/06 18:12:13;;;;;;;6.65;5.40;;;;;;;;;;10335778;28;20305;-74
2022/09/06 18:17:13;;;;;;;12.57;5.18;;;;;;;;;;10345924;28;20030;-74
2022/09/06 18:22:13;;;;;;;6.88;4.75;;;;;;;;;;10352921;28;20061;-74
2022/09/06 18:27:14;;;;;;;6.95;5.43;;;;;;;;;;10345192;28;20038;-77
2022/09/06 18:32:14;;;;;;;8.55;5.38;;;;;;;;;;10344056;28;20046;-77
2022/09/06 18:37:15;;;;;;;8.63;5.72;;;;;;;;;;10355262;28;20034;-76
2022/09/06 18:42:15;;;;;;;7.87;5.80;;;;;;;;;;10355259;28;20129;-74
2022/09/06 18:47:17;;;;;;;10.47;8.13;;;;;;;;;;10347731;28;20297;-76
2022/09/06 18:52:19;;;;;;;8.67;7.70;;;;;;;;;;10343979;28;20383;-79
2022/09/06 18:57:19;;;;;;;9.82;7.00;;;;;;;;;;10349031;28;20038;-80
2022/09/06 19:02:22;;;;;;;7.85;6.90;;;;;;;;;;10351482;28;20062;-77
2022/09/06 19:07:22;;;;;;;8.57;7.18;;;;;;;;;;10346071;28;20042;-79
2022/09/06 19:12:22;;;;;;;8.95;6.70;;;;;;;;;;10352007;28;20478;-77
2022/09/06 19:17:23;;;;;;;9.13;6.30;;;;;;;;;;10341036;28;20077;-77
2022/09/06 19:22:23;;;;;;;6.53;5.30;;;;;;;;;;10358397;28;20303;-78
2022/09/06 19:27:24;;;;;;;6.70;4.87;;;;;;;;;;10355459;28;20540;-77
2022/09/06 19:32:25;;;;;;;5.80;4.43;;;;;;;;;;10358983;28;20304;-78
2022/09/06 19:37:26;;;;;;;8.30;5.97;;;;;;;;;;10359748;28;20740;-79
2022/09/06 19:42:26;;;;;;;6.15;5.55;;;;;;;;;;10336943;28;20370;-77
2022/09/06 19:47:27;;;;;;;6.35;4.07;;;;;;;;;;10347120;28;20053;-77
2022/09/06 19:52:27;;;;;;;6.90;4.60;;;;;;;;;;10355085;28;20107;-78
2022/09/06 19:57:28;;;;;;;4.90;4.40;;;;;;;;;;10358027;28;20508;-79
2022/09/06 20:02:29;;;;;;;4.90;4.50;;;;;;;;;;10358491;28;20397;-78
2022/09/06 20:07:30;;;;;;;5.38;4.88;;;;;;;;;;10345234;28;20807;-76
2022/09/06 20:12:31;;;;;;;6.13;5.53;;;;;;;;;;10351319;28;20131;-77
2022/09/06 20:17:31;;;;;;;6.63;5.78;;;;;;;;;;10353229;28;20049;-80
2022/09/06 20:22:32;;;;;;;6.95;5.93;;;;;;;;;;10354785;28;20049;-77
2022/09/06 20:27:32;;;;;;;6.70;4.95;;;;;;;;;;10348675;28;20042;-78
2022/09/06 20:32:33;;;;;;;8.87;6.03;;;;;;;;;;10346444;28;20070;-78
2022/09/06 20:37:34;;;;;;;6.57;5.28;;;;;;;;;;10349200;28;20287;-78
2022/09/06 20:42:40;;;;;;;7.13;5.23;;;;;;;;;;10354059;28;20504;-77
2022/09/06 20:47:41;;;;;;;7.78;5.68;;;;;;;;;;10356302;28;20401;-77
2022/09/06 20:52:41;;;;;;;6.20;5.60;;;;;;;;;;10358151;28;20049;-76
2022/09/06 20:57:42;;;;;;;7.25;5.60;;;;;;;;;;10352127;28;20438;-77
2022/09/06 21:02:42;;;;;;;6.53;5.63;;;;;;;;;;10354164;28;20030;-78
2022/09/06 21:07:43;;;;;;;6.57;5.47;;;;;;;;;;10352090;28;20352;-76
2022/09/06 21:12:46;;;;;;;5.78;5.10;;;;;;;;;;10351204;28;20916;-77
2022/09/06 21:17:46;;;;;;;9.10;5.40;;;;;;;;;;10367254;28;20137;-78
2022/09/06 21:22:47;;;;;;;6.13;5.07;;;;;;;;;;10366984;28;20037;-78
2022/09/06 21:27:47;;;;;;;6.10;5.17;;;;;;;;;;10374381;28;20292;-79
2022/09/06 21:32:48;;;;;;;5.40;4.90;;;;;;;;;;10373104;28;20309;-79
2022/09/06 21:37:50;;;;;;;5.97;5.18;;;;;;;;;;10330728;28;20800;-79
2022/09/06 21:42:50;;;;;;;6.63;5.57;;;;;;;;;;10350089;28;20050;-78
2022/09/06 21:47:51;;;;;;;6.13;5.53;;;;;;;;;;10346482;28;20065;-77
2022/09/06 21:52:52;;;;;;;5.72;5.13;;;;;;;;;;10340727;28;20047;-78
2022/09/06 21:57:53;;;;;;;5.50;4.78;;;;;;;;;;10354544;28;20041;-78
2022/09/06 22:02:53;;;;;;;5.50;5.00;;;;;;;;;;10349196;28;20509;-78
2022/09/06 22:07:53;;;;;;;6.70;5.20;;;;;;;;;;10345719;28;20769;-78
2022/09/06 22:12:54;;;;;;;6.38;5.25;;;;;;;;;;10341953;28;20406;-78
2022/09/06 22:17:54;;;;;;;5.40;4.90;;;;;;;;;;10353641;28;20038;-78
2022/09/06 22:22:55;;;;;;;5.37;4.87;;;;;;;;;;10352357;28;20038;-81
2022/09/06 22:27:56;;;;;;;7.03;5.65;;;;;;;;;;10353644;28;20297;-76
2022/09/06 22:32:57;;;;;;;6.57;5.88;;;;;;;;;;10340976;28;20070;-77
2022/09/06 22:37:57;;;;;;;8.52;6.68;;;;;;;;;;10350380;28;20130;-78
2022/09/06 22:42:58;;;;;;;8.48;6.88;;;;;;;;;;10358994;28;20042;-78
2022/09/06 22:48:02;;;;;;;5.75;5.25;;;;;;;;;;10338315;28;20041;-78
2022/09/06 22:53:13;;;;;;;6.45;5.38;;;;;;;;;;10355305;28;20050;-78
2022/09/06 22:58:16;;;;;;;7.60;6.00;;;;;;;;;;10375173;28;20097;-77
2022/09/06 23:03:28;;;;;;;7.25;6.30;;;;;;;;;;10341338;28;20050;-78
2022/09/06 23:08:29;;;;;;;6.43;5.40;;;;;;;;;;10338382;28;20119;-79
2022/09/06 23:13:30;;;;;;;7.20;6.50;;;;;;;;;;10355829;28;20038;-77
2022/09/06 23:18:32;;;;;;;6.82;6.15;;;;;;;;;;10370041;28;20046;-79
2022/09/06 23:29:30;;;;;;;6.15;5.53;;;;;;;;;;10374592;28;20034;-78
2022/09/06 23:34:32;;;;;;;6.53;5.93;;;;;;;;;;10348599;28;20041;-78
2022/09/06 23:39:36;;;;;;;6.65;5.85;;;;;;;;;;10371266;28;20050;-77
2022/09/06 23:44:36;;;;;;;8.60;5.93;;;;;;;;;;10372978;28;20026;-80
2022/09/06 23:49:37;;;;;;;6.75;6.13;;;;;;;;;;10365032;28;20042;-79
2022/09/06 23:54:37;;;;;;;8.63;6.38;;;;;;;;;;10354072;28;20515;-79
2022/09/06 23:59:38;;;;;;;7.17;6.57;;;;;;;;;;10354467;28;20049;-79
